Time;durP1;ratioP1;P1;durP2;ratioP2;P2;SDS_P1;SDS_P2;PMS_P1;PMS_P2;Temp;Humidity;BMP_temperature;BMP_pressure;BME280_temperature;BME280_humidity;BME280_pressure;Samples;Min_cycle;Max_cycle;Signal;HPM_P1;HPM_P2
2022/09/10 00:01:50;;;;;;;11.77;9.35;;;15.50;99.90;;;;;;5007887;28;20041;-75
2022/09/10 00:04:16;;;;;;;15.40;9.75;;;15.50;99.90;;;;;;4987828;28;20046;-77
2022/09/10 00:06:43;;;;;;;11.60;9.40;;;15.50;99.90;;;;;;5006107;28;20087;-77
2022/09/10 00:09:10;;;;;;;15.68;9.68;;;15.50;99.90;;;;;;4985079;28;20118;-77
2022/09/10 00:11:39;;;;;;;16.67;10.35;;;15.50;99.90;;;;;;4974489;28;20041;-75
2022/09/10 00:14:07;;;;;;;15.20;9.95;;;15.60;99.90;;;;;;5005699;28;20054;-78
2022/09/10 00:16:33;;;;;;;14.95;9.68;;;15.60;99.90;;;;;;5019824;28;20085;-77
2022/09/10 00:19:00;;;;;;;13.75;9.93;;;15.60;99.90;;;;;;5017480;28;20450;-75
2022/09/10 00:21:26;;;;;;;15.15;9.90;;;15.60;99.90;;;;;;5013334;28;20064;-77
2022/09/10 00:23:53;;;;;;;13.43;10.30;;;15.60;99.90;;;;;;4999750;28;20049;-76
2022/09/10 00:26:25;;;;;;;16.52;10.30;;;15.50;99.90;;;;;;5015707;28;20042;-78
2022/09/10 00:28:53;;;;;;;17.05;10.80;;;15.50;99.90;;;;;;5006860;28;20050;-80
2022/09/10 00:31:21;;;;;;;15.20;10.80;;;15.60;99.90;;;;;;5002447;28;20049;-73
2022/09/10 00:33:48;;;;;;;16.83;10.70;;;15.50;99.90;;;;;;5002634;28;20207;-75
2022/09/10 00:36:20;;;;;;;14.27;10.88;;;15.60;99.90;;;;;;5002933;28;20042;-77
2022/09/10 00:38:47;;;;;;;15.05;11.25;;;15.60;99.90;;;;;;5000729;28;20473;-83
2022/09/10 00:41:13;;;;;;;16.40;10.73;;;15.50;99.90;;;;;;5005326;28;20042;-78
2022/09/10 00:43:53;;;;;;;12.38;9.90;;;15.60;99.90;;;;;;4994667;28;20037;-77
2022/09/10 00:46:42;;;;;;;14.32;10.60;;;15.60;99.90;;;;;;4981441;28;20057;-76
2022/09/10 00:49:21;;;;;;;16.13;10.35;;;15.60;99.90;;;;;;4998659;28;20148;-77
2022/09/10 00:51:50;;;;;;;15.43;10.55;;;15.60;99.90;;;;;;5016390;28;20066;-77
2022/09/10 00:54:19;;;;;;;18.10;10.90;;;15.60;99.90;;;;;;4982497;28;20524;-78
2022/09/10 00:56:45;;;;;;;16.95;10.52;;;15.60;99.90;;;;;;5001182;28;20069;-78
2022/09/10 00:59:15;;;;;;;19.10;11.25;;;15.50;99.90;;;;;;4998000;28;20037;-74
2022/09/10 01:01:41;;;;;;;14.93;11.40;;;15.60;99.90;;;;;;4982215;28;20038;-78
2022/09/10 01:04:09;;;;;;;14.60;11.23;;;15.50;99.90;;;;;;4998491;28;20053;-81
2022/09/10 01:06:38;;;;;;;15.27;11.60;;;15.50;99.90;;;;;;4998820;28;20584;-80
2022/09/10 01:09:05;;;;;;;19.25;11.98;;;15.50;99.90;;;;;;5000016;28;20116;-80
2022/09/10 01:11:42;;;;;;;15.57;11.95;;;15.60;99.90;;;;;;4999216;28;20062;-82
2022/09/10 01:14:31;;;;;;;18.55;11.98;;;15.50;99.90;;;;;;4986112;28;20046;-77
2022/09/10 01:17:18;;;;;;;19.65;12.40;;;15.50;99.90;;;;;;4980738;28;20054;-76
2022/09/10 01:19:56;;;;;;;15.00;12.00;;;15.50;99.90;;;;;;4994463;28;20107;-78
2022/09/10 01:22:22;;;;;;;17.95;12.25;;;15.60;99.90;;;;;;4999738;28;20406;-82
2022/09/10 01:25:29;;;;;;;16.77;12.07;;;15.60;99.90;;;;;;4998492;28;20104;-75
2022/09/10 01:27:58;;;;;;;18.30;12.82;;;15.60;99.90;;;;;;5001468;28;20046;-81
2022/09/10 01:30:40;;;;;;;19.25;12.43;;;15.60;99.90;;;;;;4980240;28;20045;-76
2022/09/10 01:33:29;;;;;;;16.90;13.07;;;15.60;99.90;;;;;;5002406;28;20501;-78
2022/09/10 01:36:08;;;;;;;18.45;13.35;;;15.60;99.90;;;;;;4995462;28;20053;-76
2022/09/10 01:38:37;;;;;;;15.27;11.75;;;15.60;99.90;;;;;;5001765;28;20049;-78
2022/09/10 01:41:03;;;;;;;18.92;12.45;;;15.60;99.90;;;;;;5000188;28;20080;-81
2022/09/10 01:43:29;;;;;;;20.17;12.88;;;15.60;99.90;;;;;;4987976;28;20034;-77
2022/09/10 01:46:10;;;;;;;19.75;13.40;;;15.70;99.90;;;;;;4983179;28;20054;-80
2022/09/10 01:48:35;;;;;;;17.73;13.90;;;15.60;99.90;;;;;;5003732;28;20045;-82
2022/09/10 01:51:26;;;;;;;17.63;12.90;;;15.60;99.90;;;;;;4983761;28;20096;-78
2022/09/10 01:54:29;;;;;;;17.00;13.38;;;15.60;99.90;;;;;;4991516;28;20042;-75
2022/09/10 01:56:54;;;;;;;20.85;14.77;;;15.60;99.90;;;;;;5004044;28;20069;-81
2022/09/10 01:59:53;;;;;;;21.70;14.50;;;15.60;99.90;;;;;;5005617;28;20108;-82
2022/09/10 02:02:27;;;;;;;20.98;15.25;;;15.60;99.90;;;;;;5010697;28;20037;-79
2022/09/10 02:04:55;;;;;;;24.65;15.55;;;15.70;99.90;;;;;;4986591;28;20042;-79
2022/09/10 02:07:23;;;;;;;24.42;15.82;;;15.60;99.90;;;;;;5000985;28;20057;-81
2022/09/10 02:09:50;;;;;;;22.63;16.65;;;15.60;99.90;;;;;;4999341;28;20046;-76
2022/09/10 02:12:18;;;;;;;26.83;18.02;;;15.70;99.90;;;;;;4999435;28;20062;-72
2022/09/10 02:14:54;;;;;;;28.40;18.75;;;15.70;99.90;;;;;;5020307;28;20115;-75
2022/09/10 02:20:54;;;;;;;27.73;18.83;;;15.70;99.90;;;;;;5016474;28;20052;-78
2022/09/10 02:23:23;;;;;;;27.20;18.63;;;15.70;99.90;;;;;;5017400;28;20103;-74
2022/09/10 02:25:49;;;;;;;28.52;20.67;;;15.70;99.90;;;;;;4998263;28;20050;-83
2022/09/10 02:28:15;;;;;;;29.85;20.77;;;15.70;99.90;;;;;;5002694;28;20080;-77
2022/09/10 02:30:41;;;;;;;28.08;20.35;;;15.70;99.90;;;;;;4978555;28;20033;-80
2022/09/10 02:33:07;;;;;;;29.25;21.23;;;15.70;99.90;;;;;;5000647;28;20409;-84
2022/09/10 02:35:32;;;;;;;32.08;21.58;;;15.70;99.90;;;;;;4982115;28;20133;-78
2022/09/10 02:37:58;;;;;;;29.67;21.45;;;15.70;99.90;;;;;;4997616;28;20057;-77
2022/09/10 02:40:24;;;;;;;31.63;22.63;;;15.60;99.90;;;;;;5000901;28;20125;-79
2022/09/10 02:42:50;;;;;;;35.72;22.65;;;15.70;99.90;;;;;;4983626;28;20502;-80
2022/09/10 02:45:15;;;;;;;31.25;22.15;;;15.60;99.90;;;;;;4993582;28;20104;-81
2022/09/10 02:47:41;;;;;;;31.67;23.45;;;15.70;99.90;;;;;;5002968;28;20477;-77
2022/09/10 02:50:08;;;;;;;31.23;23.35;;;15.60;99.90;;;;;;5000979;28;20038;-81
2022/09/10 02:52:34;;;;;;;28.77;22.38;;;15.60;99.90;;;;;;4983198;28;20061;-76
2022/09/10 02:55:00;;;;;;;35.55;23.30;;;15.60;99.90;;;;;;5004283;28;20057;-77
2022/09/10 02:57:26;;;;;;;32.47;22.95;;;15.70;99.90;;;;;;4987089;28;20353;-80
2022/09/10 02:59:55;;;;;;;36.13;23.85;;;15.60;99.90;;;;;;5000773;28;20061;-78
2022/09/10 03:02:30;;;;;;;35.63;23.55;;;15.70;99.90;;;;;;5007156;28;20046;-78
2022/09/10 03:04:56;;;;;;;35.13;23.80;;;15.70;99.90;;;;;;4989755;28;20481;-84
2022/09/10 03:07:21;;;;;;;30.80;23.25;;;15.60;99.90;;;;;;4998515;28;20050;-76
2022/09/10 03:09:47;;;;;;;35.78;23.33;;;15.60;99.90;;;;;;5012902;28;20072;-76
2022/09/10 03:12:15;;;;;;;32.45;22.17;;;15.70;99.90;;;;;;4982886;28;20050;-80
2022/09/10 03:14:42;;;;;;;32.75;22.95;;;15.60;99.90;;;;;;4986671;28;20346;-76
2022/09/10 03:17:08;;;;;;;33.85;22.95;;;15.60;99.90;;;;;;4987246;28;20042;-75
2022/09/10 03:19:34;;;;;;;37.00;23.80;;;15.80;99.90;;;;;;5006948;28;20066;-81
2022/09/10 03:22:00;;;;;;;34.08;23.88;;;15.70;99.90;;;;;;5012151;28;20120;-76
2022/09/10 03:24:27;;;;;;;36.80;24.83;;;15.60;99.90;;;;;;5008444;28;20436;-77
2022/09/10 03:26:53;;;;;;;37.47;24.58;;;15.70;99.90;;;;;;5000738;28;20373;-80
2022/09/10 03:29:19;;;;;;;31.55;23.63;;;15.60;99.90;;;;;;4998736;28;20042;-79
2022/09/10 03:31:45;;;;;;;36.95;24.33;;;15.70;99.90;;;;;;4997406;28;20049;-77
2022/09/10 03:34:11;;;;;;;37.17;25.30;;;15.70;99.90;;;;;;5000924;28;20405;-79
2022/09/10 03:36:37;;;;;;;37.03;26.23;;;15.70;99.90;;;;;;5000328;28;20152;-76
2022/09/10 03:39:03;;;;;;;37.58;25.40;;;15.70;99.90;;;;;;4999830;28;20192;-77
2022/09/10 03:41:30;;;;;;;35.65;24.75;;;15.70;99.90;;;;;;4998367;28;20389;-78
2022/09/10 03:43:56;;;;;;;36.42;24.95;;;15.70;99.90;;;;;;5001552;28;20045;-81
2022/09/10 03:46:23;;;;;;;34.58;25.13;;;15.80;99.90;;;;;;5000608;28;20046;-80
2022/09/10 03:48:49;;;;;;;38.42;25.83;;;15.70;99.90;;;;;;4980215;28;20199;-78
2022/09/10 03:51:15;;;;;;;37.53;24.77;;;15.70;99.90;;;;;;4999145;28;20169;-79
2022/09/10 03:53:42;;;;;;;37.92;26.13;;;15.60;99.90;;;;;;4987506;28;20045;-81
2022/09/10 03:56:09;;;;;;;36.42;24.48;;;15.60;99.90;;;;;;4998221;28;20529;-79
2022/09/10 03:58:35;;;;;;;37.40;24.17;;;15.60;99.90;;;;;;4987181;28;20046;-84
2022/09/10 04:01:01;;;;;;;35.85;24.83;;;15.60;99.90;;;;;;4992815;28;20061;-81
2022/09/10 04:03:28;;;;;;;36.47;25.30;;;15.60;99.90;;;;;;4999859;28;20049;-82
2022/09/10 04:05:53;;;;;;;38.17;25.30;;;15.60;99.90;;;;;;5006455;28;20084;-79
2022/09/10 04:08:19;;;;;;;40.20;25.70;;;15.60;99.90;;;;;;4989241;28;20060;-78
2022/09/10 04:10:48;;;;;;;37.83;25.52;;;15.60;99.90;;;;;;4990023;28;20049;-78
2022/09/10 04:13:14;;;;;;;38.22;25.58;;;15.60;99.90;;;;;;4989725;28;20071;-80
2022/09/10 04:15:41;;;;;;;42.92;26.30;;;15.60;99.90;;;;;;5002978;28;20061;-80
2022/09/10 04:18:07;;;;;;;39.38;25.88;;;15.60;99.90;;;;;;4984626;28;20116;-81
2022/09/10 04:20:33;;;;;;;37.50;25.60;;;15.60;99.90;;;;;;5003165;28;20141;-77
2022/09/10 04:22:59;;;;;;;35.65;26.15;;;15.50;99.90;;;;;;5003882;28;20034;-78
2022/09/10 04:25:25;;;;;;;38.78;26.58;;;15.60;99.90;;;;;;4988562;28;20041;-78
2022/09/10 04:27:50;;;;;;;40.63;26.92;;;15.50;99.90;;;;;;5005513;28;20042;-81
2022/09/10 04:30:16;;;;;;;39.13;26.42;;;15.50;99.90;;;;;;4988086;28;20041;-81
2022/09/10 04:32:43;;;;;;;45.50;26.63;;;15.50;99.90;;;;;;5004339;28;20037;-78
2022/09/10 04:35:09;;;;;;;46.65;27.33;;;15.50;99.90;;;;;;5003922;28;20050;-79
2022/09/10 04:37:35;;;;;;;45.42;27.63;;;15.40;99.90;;;;;;4987565;28;20462;-81
2022/09/10 04:40:01;;;;;;;49.83;29.27;;;15.50;99.90;;;;;;4984193;28;20057;-78
2022/09/10 04:42:27;;;;;;;51.00;29.45;;;15.50;99.90;;;;;;5006987;28;20034;-80
2022/09/10 04:44:53;;;;;;;47.58;29.10;;;15.50;99.90;;;;;;4994519;28;20049;-80
2022/09/10 04:47:20;;;;;;;50.88;28.50;;;15.50;99.90;;;;;;4986153;28;20128;-78
2022/09/10 04:49:45;;;;;;;52.10;27.88;;;15.50;99.90;;;;;;4985326;28;20097;-81
2022/09/10 04:52:12;;;;;;;48.80;27.45;;;15.50;99.90;;;;;;5002071;28;20057;-79
2022/09/10 04:54:38;;;;;;;44.85;27.10;;;15.50;99.90;;;;;;5000959;28;20052;-80
2022/09/10 04:57:05;;;;;;;40.75;27.10;;;15.50;99.90;;;;;;5001367;28;20374;-81
2022/09/10 04:59:34;;;;;;;45.90;27.58;;;15.50;99.90;;;;;;5005932;28;20397;-78
2022/09/10 05:02:00;;;;;;;44.83;26.88;;;15.50;99.90;;;;;;5004244;28;20122;-75
2022/09/10 05:04:33;;;;;;;43.22;27.58;;;15.50;99.90;;;;;;4998688;28;20037;-78
2022/09/10 05:07:00;;;;;;;41.67;25.75;;;15.50;99.90;;;;;;5005013;28;20034;-82
2022/09/10 05:09:30;;;;;;;39.20;26.45;;;15.50;99.90;;;;;;5003159;28;20038;-86
2022/09/10 05:12:02;;;;;;;38.65;24.73;;;15.50;99.90;;;;;;4990944;28;20040;-84
2022/09/10 05:14:28;;;;;;;36.00;25.65;;;15.50;99.90;;;;;;4991291;28;20505;-81
2022/09/10 05:16:54;;;;;;;38.05;25.20;;;15.50;99.90;;;;;;5013067;28;20053;-77
2022/09/10 05:19:20;;;;;;;42.78;25.67;;;15.50;99.90;;;;;;4999499;28;20130;-75
2022/09/10 05:21:47;;;;;;;37.17;24.40;;;15.50;99.90;;;;;;4994707;28;20030;-76
2022/09/10 05:24:13;;;;;;;43.40;24.80;;;15.50;99.90;;;;;;5016215;28;20049;-74
2022/09/10 05:26:40;;;;;;;37.92;24.38;;;15.50;99.90;;;;;;5010864;28;20104;-76
2022/09/10 05:29:06;;;;;;;34.38;24.10;;;15.50;99.90;;;;;;5006762;28;20504;-77
2022/09/10 05:31:35;;;;;;;34.90;24.23;;;15.50;99.90;;;;;;4998279;28;20045;-77
2022/09/10 05:34:03;;;;;;;32.90;22.08;;;15.50;99.90;;;;;;4981206;28;20066;-82
2022/09/10 05:36:32;;;;;;;35.53;22.73;;;15.50;99.90;;;;;;4995831;28;20049;-76
2022/09/10 05:38:59;;;;;;;35.97;23.08;;;15.60;99.90;;;;;;4975295;28;20381;-77
2022/09/10 05:41:26;;;;;;;32.88;22.02;;;15.70;99.90;;;;;;4997302;28;20034;-81
2022/09/10 05:43:53;;;;;;;32.90;21.60;;;15.70;99.90;;;;;;4979301;28;20120;-82
2022/09/10 05:46:19;;;;;;;31.35;22.33;;;15.70;99.90;;;;;;4995949;28;20060;-78
2022/09/10 05:48:45;;;;;;;33.05;22.95;;;15.70;99.90;;;;;;4998158;28;20038;-74
2022/09/10 05:51:10;;;;;;;31.38;21.65;;;15.70;99.90;;;;;;5003429;28;20405;-80
2022/09/10 05:53:37;;;;;;;35.00;21.77;;;15.70;99.90;;;;;;4997973;28;20045;-80
2022/09/10 05:56:08;;;;;;;33.45;21.25;;;15.80;99.90;;;;;;4981974;28;20046;-83
2022/09/10 05:58:34;;;;;;;33.78;21.50;;;15.90;99.90;;;;;;4990067;28;20056;-82
2022/09/10 06:01:05;;;;;;;31.60;21.45;;;15.80;99.90;;;;;;5009264;28;20117;-80
2022/09/10 06:03:34;;;;;;;29.30;21.08;;;15.90;99.90;;;;;;5005426;28;20065;-81
2022/09/10 06:06:00;;;;;;;35.60;20.42;;;15.90;99.90;;;;;;5002415;28;20045;-83
2022/09/10 06:08:25;;;;;;;30.35;21.63;;;16.00;99.90;;;;;;5000754;28;20038;-78
2022/09/10 06:11:05;;;;;;;31.63;21.02;;;16.00;99.90;;;;;;5007072;28;20124;-81
2022/09/10 06:13:34;;;;;;;34.13;21.35;;;16.00;99.90;;;;;;5002283;28;20046;-76
2022/09/10 06:16:00;;;;;;;31.80;20.52;;;16.00;99.90;;;;;;4994144;28;20053;-80
2022/09/10 06:18:26;;;;;;;32.05;19.98;;;16.00;99.90;;;;;;5008838;28;20045;-78
2022/09/10 06:21:12;;;;;;;30.05;20.55;;;16.10;99.90;;;;;;5004556;28;20434;-83
2022/09/10 06:23:39;;;;;;;34.78;21.10;;;16.10;99.90;;;;;;4968165;28;20041;-77
2022/09/10 06:26:08;;;;;;;33.53;20.20;;;16.10;99.90;;;;;;4982027;28;20046;-79
2022/09/10 06:28:34;;;;;;;32.08;20.25;;;16.10;99.90;;;;;;5001581;28;20045;-76
2022/09/10 06:31:05;;;;;;;28.25;20.35;;;16.10;99.90;;;;;;4999898;28;20315;-77
2022/09/10 06:33:32;;;;;;;30.30;19.90;;;16.20;99.90;;;;;;5005677;28;20041;-78
2022/09/10 06:36:22;;;;;;;27.30;19.55;;;16.30;99.90;;;;;;4983739;28;20052;-84
2022/09/10 06:38:48;;;;;;;28.40;19.00;;;16.30;99.90;;;;;;4985371;28;20137;-81
2022/09/10 06:41:16;;;;;;;30.48;19.23;;;16.30;99.90;;;;;;4982239;28;20157;-81
2022/09/10 06:43:42;;;;;;;30.10;19.95;;;16.30;99.90;;;;;;4982843;28;20076;-85
2022/09/10 06:46:12;;;;;;;28.33;19.38;;;16.40;99.90;;;;;;4982765;28;20077;-79
2022/09/10 06:48:41;;;;;;;32.30;19.48;;;16.50;99.90;;;;;;5000512;28;20389;-76
2022/09/10 06:51:09;;;;;;;29.88;18.75;;;16.50;99.90;;;;;;4997879;28;20057;-79
2022/09/10 06:53:35;;;;;;;33.72;19.45;;;16.50;99.90;;;;;;4997861;28;20045;-79
2022/09/10 06:56:09;;;;;;;29.80;19.30;;;16.40;99.90;;;;;;4995760;28;20046;-77
2022/09/10 06:58:35;;;;;;;36.13;19.27;;;16.50;99.90;;;;;;4994903;28;20462;-78
2022/09/10 07:01:09;;;;;;;34.38;19.73;;;16.50;99.90;;;;;;4979246;28;20073;-76
2022/09/10 07:03:35;;;;;;;29.58;19.42;;;16.50;99.90;;;;;;4993649;28;20045;-76
2022/09/10 07:06:06;;;;;;;28.08;19.63;;;16.50;99.90;;;;;;4979944;28;20057;-77
2022/09/10 07:08:32;;;;;;;30.85;19.85;;;16.60;99.90;;;;;;4995371;28;20129;-74
2022/09/10 07:11:00;;;;;;;31.33;19.75;;;16.60;99.90;;;;;;4999573;28;20050;-74
2022/09/10 07:13:26;;;;;;;31.35;18.42;;;16.70;99.90;;;;;;4995134;28;20469;-77
2022/09/10 07:15:52;;;;;;;29.88;18.90;;;16.80;99.90;;;;;;4997754;28;20061;-78
2022/09/10 07:18:18;;;;;;;29.38;19.17;;;16.80;99.90;;;;;;4996155;28;20046;-79
2022/09/10 07:20:45;;;;;;;34.10;19.77;;;16.80;99.90;;;;;;4998132;28;20034;-76
2022/09/10 07:23:12;;;;;;;25.35;18.30;;;16.80;99.90;;;;;;4982826;28;20104;-77
2022/09/10 07:25:38;;;;;;;28.63;18.75;;;16.70;99.90;;;;;;4983092;28;20470;-79
2022/09/10 07:28:05;;;;;;;30.92;18.90;;;16.80;99.90;;;;;;4997591;28;20328;-77
2022/09/10 07:30:32;;;;;;;31.65;19.23;;;16.80;99.90;;;;;;4978941;28;20077;-77
2022/09/10 07:32:58;;;;;;;28.58;18.75;;;16.90;99.90;;;;;;4978145;28;20050;-80
2022/09/10 07:35:24;;;;;;;26.15;17.75;;;16.90;99.90;;;;;;4981798;28;20052;-77
2022/09/10 07:37:50;;;;;;;29.88;18.83;;;16.90;99.90;;;;;;4996810;28;20042;-76
2022/09/10 07:40:15;;;;;;;29.83;17.92;;;16.90;99.90;;;;;;4982867;28;20046;-78
2022/09/10 07:42:42;;;;;;;26.17;17.55;;;16.90;99.90;;;;;;4985792;28;20084;-77
2022/09/10 07:45:14;;;;;;;29.23;17.92;;;16.90;99.90;;;;;;5005643;28;20050;-76
2022/09/10 07:47:41;;;;;;;29.42;17.65;;;17.00;99.90;;;;;;5008320;28;20520;-74
2022/09/10 07:50:07;;;;;;;25.30;16.33;;;16.90;99.90;;;;;;5002810;28;20037;-75
2022/09/10 07:52:33;;;;;;;27.08;16.73;;;17.00;99.90;;;;;;5003128;28;20037;-74
2022/09/10 07:55:04;;;;;;;27.05;17.27;;;16.90;99.90;;;;;;4983195;28;20521;-85
2022/09/10 07:57:32;;;;;;;27.48;16.92;;;17.00;99.90;;;;;;5003650;28;20052;-75
2022/09/10 07:59:59;;;;;;;31.35;18.25;;;17.00;99.90;;;;;;5000735;28;20192;-73
2022/09/10 08:02:25;;;;;;;27.30;18.15;;;17.10;99.90;;;;;;4998371;28;20042;-76
2022/09/10 08:04:52;;;;;;;29.27;17.75;;;17.10;99.90;;;;;;5004491;28;20537;-79
2022/09/10 08:07:18;;;;;;;29.38;18.85;;;17.10;99.90;;;;;;4989139;28;20053;-74
2022/09/10 08:09:47;;;;;;;26.45;17.88;;;17.20;99.90;;;;;;4992281;28;20100;-79
2022/09/10 08:12:12;;;;;;;30.92;18.38;;;17.20;99.90;;;;;;5008734;28;20042;-78
2022/09/10 08:14:38;;;;;;;30.55;18.52;;;17.20;99.90;;;;;;5006149;28;20061;-76
2022/09/10 08:17:04;;;;;;;30.40;18.30;;;17.10;99.90;;;;;;4990019;28;20073;-77
2022/09/10 08:19:30;;;;;;;33.63;19.02;;;17.10;99.90;;;;;;5007659;28;20157;-76
2022/09/10 08:21:55;;;;;;;27.83;19.20;;;17.10;99.90;;;;;;4990258;28;20046;-76
2022/09/10 08:24:21;;;;;;;29.90;18.40;;;17.20;99.90;;;;;;4987909;28;20052;-78
2022/09/10 08:26:48;;;;;;;33.20;18.92;;;17.10;99.90;;;;;;4992286;28;20133;-75
2022/09/10 08:29:13;;;;;;;30.60;19.35;;;17.20;99.90;;;;;;4996564;28;20057;-79
2022/09/10 08:31:43;;;;;;;29.15;16.20;;;17.10;99.90;;;;;;4997192;28;20076;-81
2022/09/10 08:34:10;;;;;;;35.92;19.38;;;17.20;99.90;;;;;;5004600;28;20066;-80
2022/09/10 08:36:37;;;;;;;30.08;18.88;;;17.20;99.90;;;;;;5002491;28;20442;-75
2022/09/10 08:39:02;;;;;;;31.75;18.50;;;17.30;99.90;;;;;;4989569;28;20061;-76
2022/09/10 08:41:37;;;;;;;16.92;10.68;;;17.30;99.90;;;;;;4986766;28;20053;-76
2022/09/10 08:44:05;;;;;;;;;;;17.50;99.90;;;;;;4982251;28;20060;-75
2022/09/10 08:46:49;;;;;;;25.45;13.35;;;17.70;99.90;;;;;;5007614;28;19917;-76
2022/09/10 08:49:46;;;;;;;27.77;15.55;;;18.00;99.90;;;;;;4984328;28;20039;-79
2022/09/10 08:52:32;;;;;;;15.70;10.50;;;18.20;99.90;;;;;;5001516;28;20817;-78
2022/09/10 08:55:03;;;;;;;22.27;14.15;;;18.40;99.90;;;;;;5022028;28;20591;-78
2022/09/10 08:57:40;;;;;;;17.85;10.93;;;18.40;99.90;;;;;;4986906;28;20121;-79
2022/09/10 09:00:11;;;;;;;16.63;9.85;;;18.60;99.90;;;;;;4985834;28;20100;-75
2022/09/10 09:03:07;;;;;;;18.75;9.00;;;18.90;99.90;;;;;;4998406;28;20049;-73
2022/09/10 09:05:56;;;;;;;24.15;14.65;;;18.90;99.90;;;;;;4985458;28;20042;-77
2022/09/10 09:08:26;;;;;;;22.70;14.18;;;19.00;99.90;;;;;;5003991;28;20104;-75
2022/09/10 09:11:22;;;;;;;24.10;14.85;;;19.10;99.90;;;;;;5001260;28;20369;-73
2022/09/10 09:14:21;;;;;;;23.35;13.65;;;19.00;99.90;;;;;;4982132;28;20050;-71
2022/09/10 09:17:20;;;;;;;19.38;12.68;;;19.00;99.90;;;;;;4998248;28;20471;-79
2022/09/10 09:19:54;;;;;;;24.02;13.68;;;19.10;99.90;;;;;;4984386;28;20137;-80
2022/09/10 09:22:27;;;;;;;22.83;12.10;;;19.10;99.90;;;;;;5002069;28;20115;-77
2022/09/10 09:25:10;;;;;;;17.90;12.07;;;19.20;99.90;;;;;;4999691;28;20176;-76
2022/09/10 09:27:42;;;;;;;22.85;14.32;;;19.10;99.90;;;;;;4996732;28;20224;-80
2022/09/10 09:30:16;;;;;;;19.50;12.35;;;18.90;99.90;;;;;;4984475;28;20050;-74
2022/09/10 09:32:45;;;;;;;20.30;12.60;;;18.90;99.90;;;;;;4996878;28;20520;-73
2022/09/10 09:35:33;;;;;;;23.83;14.50;;;18.90;99.90;;;;;;4982593;28;20050;-71
2022/09/10 09:38:30;;;;;;;21.20;12.65;;;18.80;99.90;;;;;;4983346;28;20116;-75
2022/09/10 09:40:59;;;;;;;17.73;11.20;;;19.00;99.90;;;;;;5016474;28;20442;-73
2022/09/10 09:43:46;;;;;;;17.52;10.90;;;19.10;99.90;;;;;;4984460;28;20049;-74
2022/09/10 09:46:17;;;;;;;72.00;12.65;;;19.20;99.90;;;;;;5002943;28;20133;-74
2022/09/10 09:48:44;;;;;;;36.88;11.23;;;19.30;99.90;;;;;;5000177;28;20057;-73
2022/09/10 09:51:13;;;;;;;21.50;12.68;;;19.40;99.90;;;;;;4999661;28;20044;-77
2022/09/10 09:53:39;;;;;;;22.95;14.10;;;19.40;99.90;;;;;;4995560;28;20088;-74
2022/09/10 09:56:35;;;;;;;16.58;10.63;;;19.40;99.90;;;;;;4994961;28;20061;-74
2022/09/10 09:59:10;;;;;;;16.85;11.02;;;19.50;99.90;;;;;;4993543;28;20128;-77
2022/09/10 10:01:43;;;;;;;21.38;12.02;;;19.60;99.90;;;;;;4997724;28;20493;-75
2022/09/10 10:04:23;;;;;;;19.63;10.15;;;19.70;99.90;;;;;;4999765;28;20041;-77
2022/09/10 10:06:59;;;;;;;20.67;12.25;;;19.80;99.90;;;;;;5003090;28;20049;-74
2022/09/10 10:09:28;;;;;;;12.40;6.97;;;19.70;99.90;;;;;;4980659;28;20033;-77
2022/09/10 10:12:03;;;;;;;24.20;10.23;;;19.80;99.90;;;;;;5000483;28;20125;-76
2022/09/10 10:14:40;;;;;;;17.33;9.32;;;20.00;99.90;;;;;;4999680;28;20091;-77
2022/09/10 10:17:38;;;;;;;14.20;8.60;;;20.00;99.90;;;;;;4984095;28;20149;-78
2022/09/10 10:20:37;;;;;;;18.35;12.35;;;19.80;99.90;;;;;;5006302;28;20389;-80
2022/09/10 10:23:35;;;;;;;18.05;11.57;;;19.50;99.90;;;;;;5010277;28;20033;-80
2022/09/10 10:26:29;;;;;;;19.25;13.43;;;19.50;99.90;;;;;;4988131;28;20041;-81
2022/09/10 10:29:05;;;;;;;20.13;13.20;;;19.30;99.90;;;;;;4995220;28;20147;-81
2022/09/10 10:31:39;;;;;;;17.25;12.23;;;19.20;99.90;;;;;;4996866;28;20042;-81
2022/09/10 10:34:13;;;;;;;17.02;12.73;;;19.20;99.90;;;;;;4999147;28;20101;-80
2022/09/10 10:37:12;;;;;;;16.45;8.60;;;19.10;99.90;;;;;;4981646;28;20108;-76
2022/09/10 10:40:00;;;;;;;12.77;8.13;;;19.30;99.90;;;;;;5001451;28;20405;-75
2022/09/10 10:42:32;;;;;;;20.85;11.30;;;19.60;99.90;;;;;;5001605;28;20057;-74
2022/09/10 10:45:24;;;;;;;16.55;9.10;;;19.70;99.90;;;;;;4983366;28;20089;-78
2022/09/10 10:48:11;;;;;;;12.23;8.07;;;19.80;99.90;;;;;;4998703;28;20050;-79
2022/09/10 10:51:00;;;;;;;19.20;12.20;;;20.00;99.90;;;;;;4980860;28;20045;-76
2022/09/10 10:53:33;;;;;;;12.50;6.97;;;20.00;99.90;;;;;;4980106;28;20096;-73
2022/09/10 10:55:58;;;;;;;23.20;9.07;;;20.10;99.90;;;;;;4999565;28;20034;-74
2022/09/10 10:58:39;;;;;;;20.85;9.25;;;20.30;99.90;;;;;;4982604;28;20046;-74
2022/09/10 11:01:19;;;;;;;20.10;10.20;;;20.30;99.90;;;;;;5003040;28;20056;-76
2022/09/10 11:04:00;;;;;;;28.42;7.85;;;20.30;99.90;;;;;;4992689;28;20030;-76
2022/09/10 11:06:43;;;;;;;24.10;8.40;;;20.40;99.90;;;;;;4996900;28;20046;-76
2022/09/10 11:09:24;;;;;;;21.58;9.27;;;20.30;99.90;;;;;;5001314;28;20054;-75
2022/09/10 11:11:55;;;;;;;16.90;10.15;;;20.20;99.90;;;;;;4993370;28;20042;-74
2022/09/10 11:15:01;;;;;;;18.80;8.85;;;20.20;99.90;;;;;;4980799;28;20093;-73
2022/09/10 11:17:46;;;;;;;14.50;8.95;;;19.90;99.90;;;;;;4989031;28;20088;-77
2022/09/10 11:20:22;;;;;;;19.97;11.57;;;19.90;99.90;;;;;;4993647;28;20473;-75
2022/09/10 11:22:54;;;;;;;22.08;7.88;;;20.00;99.90;;;;;;4990051;28;20034;-76
2022/09/10 11:25:49;;;;;;;17.75;8.07;;;19.90;99.90;;;;;;4970142;28;20450;-77
2022/09/10 11:28:26;;;;;;;15.15;10.07;;;19.90;99.90;;;;;;4985996;28;20163;-75
2022/09/10 11:31:01;;;;;;;17.58;8.70;;;20.10;99.90;;;;;;4986108;28;20044;-75
2022/09/10 11:33:58;;;;;;;15.02;8.07;;;20.30;99.90;;;;;;4964733;28;20053;-75
2022/09/10 11:36:51;;;;;;;12.98;6.35;;;20.50;99.90;;;;;;4982067;28;20501;-76
2022/09/10 11:39:20;;;;;;;16.08;7.90;;;20.60;99.90;;;;;;4983906;28;20489;-72
2022/09/10 11:41:50;;;;;;;13.57;8.18;;;20.90;99.90;;;;;;4989192;28;20061;-75
2022/09/10 11:44:16;;;;;;;10.63;6.70;;;21.10;99.90;;;;;;4988613;28;20530;-78
2022/09/10 11:47:20;;;;;;;17.27;8.93;;;21.00;99.90;;;;;;4987146;28;20053;-74
2022/09/10 11:50:00;;;;;;;13.13;7.85;;;21.20;99.90;;;;;;5005810;28;20458;-76
2022/09/10 11:52:30;;;;;;;13.13;8.65;;;21.40;99.90;;;;;;4975280;28;20092;-77
2022/09/10 11:54:57;;;;;;;10.90;7.50;;;21.50;99.90;;;;;;4997312;28;20046;-78
2022/09/10 11:57:37;;;;;;;15.43;10.38;;;21.80;99.90;;;;;;4996054;28;20443;-75
2022/09/10 12:00:06;;;;;;;11.65;9.40;;;22.00;99.90;;;;;;4989760;28;20078;-75
2022/09/10 12:02:52;;;;;;;13.40;6.80;;;22.20;99.90;;;;;;4999837;28;20034;-75
2022/09/10 12:05:44;;;;;;;13.45;9.52;;;22.70;99.90;;;;;;4992155;28;20108;-75
2022/09/10 12:08:50;;;;;;;11.70;8.50;;;22.60;99.90;;;;;;4997431;28;20060;-75
2022/09/10 12:11:28;;;;;;;11.82;8.05;;;22.50;99.90;;;;;;4966894;28;20128;-73
2022/09/10 12:13:56;;;;;;;8.40;6.28;;;22.60;99.90;;;;;;4997703;28;20045;-75
2022/09/10 12:16:41;;;;;;;10.70;7.03;;;22.60;99.90;;;;;;4980101;28;20605;-74
2022/09/10 12:19:13;;;;;;;;;;;22.30;99.90;;;;;;4959474;28;20073;-73
2022/09/10 12:21:47;;;;;;;7.18;4.25;;;21.80;99.90;;;;;;4981521;28;19921;-76
2022/09/10 12:24:37;;;;;;;8.23;4.72;;;21.70;99.90;;;;;;4982791;28;20039;-75
2022/09/10 12:27:05;;;;;;;11.50;6.50;;;21.90;99.90;;;;;;4978485;28;20052;-78
2022/09/10 12:29:39;;;;;;;9.43;7.30;;;21.60;99.90;;;;;;4988005;28;20042;-76
2022/09/10 12:32:11;;;;;;;5.93;3.92;;;21.40;99.90;;;;;;4988273;28;20119;-75
2022/09/10 12:34:37;;;;;;;6.95;4.75;;;21.50;99.90;;;;;;4999488;28;20077;-75
2022/09/10 12:37:03;;;;;;;9.23;5.55;;;21.70;99.90;;;;;;4990179;28;20428;-74
2022/09/10 12:39:29;;;;;;;6.22;4.43;;;22.00;99.90;;;;;;4988112;28;20059;-75
2022/09/10 12:41:58;;;;;;;7.45;4.18;;;22.50;99.90;;;;;;4970350;28;20054;-76
2022/09/10 12:44:33;;;;;;;6.20;3.72;;;22.60;99.90;;;;;;4990876;28;20473;-76
2022/09/10 12:47:17;;;;;;;8.15;4.70;;;23.00;99.90;;;;;;4970149;28;20080;-77
2022/09/10 12:50:03;;;;;;;4.80;3.65;;;23.60;99.90;;;;;;5001117;28;20052;-74
2022/09/10 12:52:49;;;;;;;4.60;3.13;;;24.30;99.90;;;;;;5003203;28;20366;-78
2022/09/10 12:55:52;;;;;;;7.28;3.70;;;24.50;99.90;;;;;;4987039;28;20052;-76
2022/09/10 12:58:42;;;;;;;15.30;3.50;;;25.40;99.90;;;;;;5005910;28;20058;-75
2022/09/10 13:01:17;;;;;;;10.43;3.80;;;25.20;99.90;;;;;;5001063;28;20033;-77